createdAt,value
2019-04-21T00:00:45.633Z,1.33
2019-04-21T00:03:19.381Z,1.47
2019-04-21T00:06:07.168Z,1.37
2019-04-21T00:08:39.222Z,1.40
2019-04-21T00:11:09.691Z,1.40
2019-04-21T00:13:32.608Z,1.83
2019-04-21T00:15:54.907Z,1.13
2019-04-21T00:18:49.879Z,1.37
2019-04-21T00:21:22.447Z,1.20
2019-04-21T00:24:01.854Z,0.87
2019-04-21T00:26:36.379Z,0.90
2019-04-21T00:29:09.119Z,0.77
2019-04-21T00:31:34.149Z,0.97
2019-04-21T00:33:53.355Z,0.73
2019-04-21T00:36:29.433Z,0.70
2019-04-21T00:39:28.869Z,0.67
2019-04-21T00:41:48.579Z,0.50
2019-04-21T00:44:12.592Z,1.10
2019-04-21T00:46:45.196Z,0.40
2019-04-21T00:49:17.010Z,0.77
2019-04-21T00:52:15.907Z,0.50
2019-04-21T00:54:41.748Z,0.30
2019-04-21T00:57:14.519Z,0.57
2019-04-21T00:59:46.374Z,0.53
2019-04-21T01:02:14.317Z,0.60
2019-04-21T01:04:44.783Z,0.17
2019-04-21T01:07:13.246Z,0.40
2019-04-21T01:09:44.012Z,1.63
2019-04-21T01:12:23.493Z,0.83
2019-04-21T01:14:58.257Z,0.17
2019-04-21T01:17:22.974Z,0.30
2019-04-21T01:19:44.823Z,0.77
2019-04-21T01:22:04.432Z,0.80
2019-04-21T01:24:39.650Z,0.30
2019-04-21T01:27:15.816Z,0.83
2019-04-21T01:30:01.256Z,0.40
2019-04-21T01:32:29.259Z,0.77
2019-04-21T01:35:02.733Z,0.80
2019-04-21T01:37:41.172Z,0.40
2019-04-21T01:40:08.704Z,0.70
2019-04-21T01:42:32.776Z,1.37
2019-04-21T01:45:05.522Z,0.77
2019-04-21T01:47:36.009Z,0.40
2019-04-21T01:49:59.060Z,0.20
2019-04-21T01:52:52.459Z,0.23
2019-04-21T01:55:19.500Z,0.60
2019-04-21T01:57:57.640Z,0.87
2019-04-21T02:00:39.394Z,0.83
2019-04-21T02:03:37.522Z,1.43
2019-04-21T02:05:52.010Z,0.50
2019-04-21T02:08:20.356Z,0.80
2019-04-21T02:10:58.777Z,0.63
2019-04-21T02:13:18.771Z,1.13
2019-04-21T02:15:56.345Z,0.60
2019-04-21T02:18:23.169Z,1.73
2019-04-21T02:20:45.604Z,1.60
2019-04-21T02:23:34.424Z,1.40
2019-04-21T02:26:03.842Z,1.53
2019-04-21T02:28:40.413Z,1.13
2019-04-21T02:31:20.446Z,0.80
2019-04-21T02:33:54.261Z,0.40
2019-04-21T02:39:06.253Z,1.53
2019-04-21T02:41:13.001Z,1.83
2019-04-21T02:43:58.345Z,1.13
2019-04-21T02:46:35.877Z,1.50
2019-04-21T02:48:55.451Z,1.40
2019-04-21T02:51:31.482Z,2.17
2019-04-21T02:56:45.433Z,2.47
2019-04-21T02:59:12.414Z,2.70
2019-04-21T03:10:11.831Z,2.10
2019-04-21T03:12:42.224Z,2.00
2019-04-21T03:15:15.995Z,2.90
2019-04-21T03:20:19.427Z,2.70
2019-04-21T03:22:42.136Z,3.63
2019-04-21T03:25:33.093Z,3.57
2019-04-21T03:27:56.885Z,3.67
2019-04-21T03:33:43.149Z,4.50
2019-04-21T03:37:55.422Z,4.13
2019-04-21T03:40:22.299Z,3.53
2019-04-21T03:42:59.798Z,2.77
2019-04-21T03:45:30.685Z,2.50
2019-04-21T03:48:01.315Z,2.03
2019-04-21T03:50:33.406Z,2.70
2019-04-21T03:53:06.862Z,1.73
2019-04-21T04:09:14.331Z,2.63
2019-04-21T04:11:29.133Z,2.30
2019-04-21T04:19:09.457Z,2.50
2019-04-21T04:24:18.044Z,2.60
2019-04-21T04:26:36.995Z,3.30
2019-04-21T04:29:03.414Z,2.97
2019-04-21T04:39:36.511Z,0.53
2019-04-21T04:47:05.476Z,1.13
2019-04-21T04:57:18.109Z,1.30
2019-04-21T04:59:43.003Z,1.07
2019-04-21T05:02:20.074Z,2.27
2019-04-21T05:04:46.055Z,2.00
2019-04-21T05:09:42.747Z,2.70
2019-04-21T05:12:24.493Z,2.27
2019-04-21T05:17:21.571Z,2.53
2019-04-21T05:19:53.890Z,2.70
2019-04-21T05:22:17.243Z,3.07
2019-04-21T05:24:39.051Z,3.30
2019-04-21T05:27:07.360Z,3.47
2019-04-21T05:29:55.631Z,3.93
2019-04-21T05:32:32.012Z,3.63
2019-04-21T05:35:01.617Z,3.50
2019-04-21T05:37:43.329Z,4.27
2019-04-21T05:40:15.797Z,3.77
2019-04-21T05:42:49.620Z,4.00
2019-04-21T05:45:29.800Z,3.77
2019-04-21T05:48:23.204Z,4.10
2019-04-21T05:50:49.513Z,3.60
2019-04-21T05:53:31.048Z,3.73
2019-04-21T05:55:56.984Z,3.33
2019-04-21T05:58:27.168Z,3.77
2019-04-21T06:03:36.923Z,3.23
2019-04-21T06:08:37.223Z,3.23
2019-04-21T06:11:10.353Z,3.33
2019-04-21T06:16:07.407Z,3.10
2019-04-21T06:18:48.895Z,3.17
2019-04-21T06:21:09.775Z,3.27
2019-04-21T06:23:40.230Z,3.07
2019-04-21T06:26:47.912Z,2.90
2019-04-21T06:29:09.147Z,3.70
2019-04-21T06:31:19.976Z,3.27
2019-04-21T06:33:50.824Z,3.10
2019-04-21T06:36:42.299Z,3.37
2019-04-21T06:41:41.519Z,2.93
2019-04-21T06:46:44.828Z,3.80
2019-04-21T06:49:13.149Z,3.40
2019-04-21T06:51:48.185Z,3.50
2019-04-21T06:54:25.274Z,3.50
2019-04-21T06:56:54.284Z,3.13
2019-04-21T06:59:24.639Z,3.50
2019-04-21T07:02:05.340Z,3.47
2019-04-21T07:07:00.483Z,3.83
2019-04-21T07:09:31.396Z,3.50
2019-04-21T07:11:59.976Z,3.83
2019-04-21T07:14:32.010Z,3.27
2019-04-21T07:17:12.604Z,3.67
2019-04-21T07:19:41.015Z,3.73
2019-04-21T07:22:15.799Z,4.00
2019-04-21T07:24:46.130Z,3.80
2019-04-21T07:27:08.813Z,3.77
2019-04-21T07:29:50.573Z,3.87
2019-04-21T07:32:31.924Z,3.83
2019-04-21T07:34:41.234Z,3.50
2019-04-21T07:37:11.883Z,3.77
2019-04-21T07:39:46.897Z,3.87
2019-04-21T07:42:13.409Z,2.97
2019-04-21T07:44:48.110Z,4.00
2019-04-21T07:47:20.422Z,3.83
2019-04-21T07:50:08.807Z,4.00
2019-04-21T07:52:48.696Z,4.10
2019-04-21T07:57:39.103Z,4.17
2019-04-21T08:02:52.356Z,3.83
2019-04-21T08:05:19.856Z,4.50
2019-04-21T08:07:51.979Z,4.07
2019-04-21T08:10:23.250Z,4.03
2019-04-21T08:12:48.158Z,4.43
2019-04-21T08:15:29.093Z,4.27
2019-04-21T08:17:54.727Z,4.20
2019-04-21T08:20:24.739Z,4.00
2019-04-21T08:22:59.301Z,3.90
2019-04-21T08:25:53.504Z,4.43
2019-04-21T08:28:05.292Z,4.13
2019-04-21T08:30:47.817Z,4.10
2019-04-21T08:38:10.600Z,4.83
2019-04-21T08:40:56.332Z,4.33
2019-04-21T08:43:12.622Z,3.90
2019-04-21T08:45:46.843Z,4.20
2019-04-21T08:48:18.167Z,4.30
2019-04-21T08:50:44.300Z,4.83
2019-04-21T08:53:14.426Z,4.43
2019-04-21T08:56:14.993Z,5.00
2019-04-21T08:58:59.184Z,4.80
2019-04-21T09:04:06.038Z,5.10
2019-04-21T09:06:54.289Z,5.23
2019-04-21T09:09:14.716Z,4.90
2019-04-21T09:11:34.887Z,5.37
2019-04-21T09:14:13.133Z,5.50
2019-04-21T09:16:36.670Z,4.93
2019-04-21T09:19:11.461Z,4.60
2019-04-21T09:21:43.571Z,4.80
2019-04-21T09:24:18.409Z,5.40
2019-04-21T09:26:48.052Z,5.10
2019-04-21T09:29:10.905Z,5.37
2019-04-21T09:31:36.529Z,5.33
2019-04-21T09:34:06.429Z,5.03
2019-04-21T09:36:44.198Z,4.77
2019-04-21T09:39:20.327Z,4.87
2019-04-21T09:41:51.156Z,4.93
2019-04-21T09:44:25.947Z,5.30
2019-04-21T09:46:54.875Z,4.77
2019-04-21T09:49:25.974Z,5.13
2019-04-21T09:51:53.617Z,4.90
2019-04-21T09:54:28.434Z,6.17
2019-04-21T09:57:00.280Z,5.27
2019-04-21T09:59:32.101Z,4.95
2019-04-21T10:02:08.453Z,4.83
2019-04-21T10:04:31.123Z,5.33
2019-04-21T10:07:02.348Z,5.10
2019-04-21T10:09:33.481Z,4.63
2019-04-21T10:12:03.194Z,4.80
2019-04-21T10:14:33.072Z,4.70
2019-04-21T10:17:21.646Z,4.70
2019-04-21T10:19:52.830Z,3.87
2019-04-21T10:22:23.214Z,5.10
2019-04-21T10:24:54.248Z,4.33
2019-04-21T10:27:25.240Z,4.23
2019-04-21T10:29:56.101Z,3.67
2019-04-21T10:32:25.873Z,4.35
2019-04-21T10:34:55.522Z,4.10
2019-04-21T10:37:41.309Z,4.25
2019-04-21T10:39:57.721Z,4.60
2019-04-21T10:42:27.548Z,4.20
2019-04-21T10:44:57.208Z,4.42
2019-04-21T10:47:27.090Z,4.47
2019-04-21T10:49:58.242Z,4.20
2019-04-21T10:52:47.109Z,4.55
2019-04-21T10:55:38.988Z,4.58
2019-04-21T10:58:08.576Z,4.55
2019-04-21T11:00:41.935Z,4.90
2019-04-21T11:03:30.910Z,4.97
2019-04-21T11:06:01.180Z,4.60
2019-04-21T11:08:37.531Z,5.05
2019-04-21T11:11:03.719Z,4.62
2019-04-21T11:13:34.765Z,4.95
2019-04-21T11:16:05.501Z,5.17
2019-04-21T11:18:35.961Z,4.55
2019-04-21T11:21:06.954Z,4.80
2019-04-21T11:23:37.521Z,4.92
2019-04-21T11:26:07.812Z,4.72
2019-04-21T11:28:38.768Z,5.05
2019-04-21T11:31:09.029Z,4.80
2019-04-21T11:33:39.574Z,4.40
2019-04-21T11:36:09.504Z,4.25
2019-04-21T11:39:05.359Z,5.13
2019-04-21T11:41:18.004Z,4.87
2019-04-21T11:43:48.816Z,4.47
2019-04-21T11:46:20.410Z,4.83
2019-04-21T11:48:52.482Z,4.05
2019-04-21T11:51:22.802Z,4.35
2019-04-21T11:53:52.889Z,4.35
2019-04-21T11:56:23.188Z,4.30
2019-04-21T11:58:54.006Z,4.22
2019-04-21T12:01:23.823Z,4.40
2019-04-21T12:03:53.767Z,3.98
2019-04-21T12:06:33.489Z,3.80
2019-04-21T12:08:58.994Z,3.70
2019-04-21T12:11:27.281Z,4.05
2019-04-21T12:13:58.311Z,3.80
2019-04-21T12:16:28.806Z,4.17
2019-04-21T12:18:58.845Z,3.95
2019-04-21T12:21:39.038Z,3.92
2019-04-21T12:24:00.708Z,4.35
2019-04-21T12:26:31.684Z,3.67
2019-04-21T12:29:01.869Z,3.42
2019-04-21T12:32:03.498Z,3.30
2019-04-21T12:34:34.297Z,3.45
2019-04-21T12:37:04.602Z,3.40
2019-04-21T12:39:36.794Z,3.10
2019-04-21T12:42:06.861Z,3.45
2019-04-21T12:44:37.166Z,3.50
2019-04-21T12:47:07.968Z,3.72
2019-04-21T12:49:38.057Z,3.00
2019-04-21T12:52:09.253Z,3.20
2019-04-21T12:54:39.674Z,3.22
2019-04-21T12:57:09.665Z,3.27
2019-04-21T12:59:39.717Z,3.20
2019-04-21T13:02:09.643Z,3.10
2019-04-21T13:04:40.027Z,3.30
2019-04-21T13:07:09.935Z,3.20
2019-04-21T13:09:40.207Z,3.10
2019-04-21T13:12:11.095Z,3.03
2019-04-21T13:14:42.131Z,3.00
2019-04-21T13:17:13.154Z,2.97
2019-04-21T13:19:43.606Z,2.93
2019-04-21T13:22:14.144Z,3.47
2019-04-21T13:24:44.144Z,2.90
2019-04-21T13:27:15.457Z,3.27
2019-04-21T13:29:46.262Z,2.70
2019-04-21T13:32:16.418Z,2.93
2019-04-21T13:34:47.811Z,3.03
2019-04-21T13:37:19.497Z,2.60
2019-04-21T13:40:35.322Z,3.20
2019-04-21T13:42:55.013Z,2.87
2019-04-21T13:45:21.928Z,3.10
2019-04-21T13:47:52.634Z,2.70
2019-04-21T13:50:23.675Z,3.10
2019-04-21T13:52:54.519Z,2.60
2019-04-21T13:55:25.567Z,2.83
2019-04-21T13:57:56.811Z,2.53
2019-04-21T14:00:27.540Z,2.20
2019-04-21T14:02:58.648Z,2.60
2019-04-21T14:05:28.735Z,2.53
2019-04-21T14:07:58.475Z,2.70
2019-04-21T14:10:29.251Z,2.70
2019-04-21T14:13:00.466Z,2.20
2019-04-21T14:15:30.497Z,2.47
2019-04-21T14:18:00.601Z,2.27
2019-04-21T14:20:31.196Z,2.37
2019-04-21T14:23:13.496Z,2.40
2019-04-21T14:25:32.599Z,2.73
2019-04-21T14:28:02.292Z,2.33
2019-04-21T14:30:32.570Z,2.33
2019-04-21T14:33:02.449Z,2.37
2019-04-21T14:35:32.815Z,2.10
2019-04-21T14:38:02.790Z,2.37
2019-04-21T14:40:35.177Z,2.10
2019-04-21T14:43:05.939Z,2.43
2019-04-21T14:45:54.412Z,2.43
2019-04-21T14:49:01.433Z,1.93
2019-04-21T14:51:49.287Z,2.63
2019-04-21T14:54:42.909Z,2.50
2019-04-21T14:57:13.568Z,2.20
2019-04-21T14:59:44.788Z,2.03
2019-04-21T15:02:16.071Z,2.10
2019-04-21T15:04:45.987Z,2.37
2019-04-21T15:07:15.592Z,2.23
2019-04-21T15:09:46.446Z,2.27
2019-04-21T15:12:16.359Z,2.00
2019-04-21T15:14:47.573Z,1.97
2019-04-21T15:17:20.693Z,2.20
2019-04-21T15:19:50.900Z,1.90
2019-04-21T15:22:21.075Z,2.57
2019-04-21T15:24:52.014Z,2.20
2019-04-21T15:27:23.131Z,2.07
2019-04-21T15:29:53.073Z,2.37
2019-04-21T15:32:24.238Z,2.33
2019-04-21T15:34:54.162Z,2.20
2019-04-21T15:37:24.157Z,2.07
2019-04-21T15:39:54.025Z,2.10
2019-04-21T15:42:24.329Z,2.03
2019-04-21T15:44:54.664Z,1.90
2019-04-21T15:47:24.381Z,2.30
2019-04-21T15:50:00.826Z,2.17
2019-04-21T15:52:28.011Z,2.07
2019-04-21T15:55:28.508Z,2.40
2019-04-21T15:58:04.810Z,2.30
2019-04-21T16:00:40.868Z,2.30
2019-04-21T16:03:10.929Z,2.97
2019-04-21T16:05:42.651Z,2.40
2019-04-21T16:08:12.472Z,2.10
2019-04-21T16:10:49.168Z,2.20
2019-04-21T16:13:13.976Z,2.50
2019-04-21T16:15:45.988Z,1.97
2019-04-21T16:18:18.241Z,2.20
2019-04-21T16:20:48.104Z,2.00
2019-04-21T16:23:18.211Z,1.97
2019-04-21T16:25:48.676Z,2.50
2019-04-21T16:28:19.283Z,1.97
2019-04-21T16:30:49.028Z,2.03
2019-04-21T16:33:18.838Z,2.00
2019-04-21T16:35:49.561Z,2.10
2019-04-21T16:38:19.734Z,2.30
2019-04-21T16:40:56.395Z,2.33
2019-04-21T16:43:20.980Z,2.40
2019-04-21T16:45:50.778Z,2.20
2019-04-21T16:48:21.184Z,2.00
2019-04-21T16:50:52.002Z,2.33
2019-04-21T16:53:26.047Z,2.23
2019-04-21T16:56:20.676Z,2.50
2019-04-21T16:58:54.695Z,2.10
2019-04-21T17:01:29.176Z,2.37
2019-04-21T17:03:58.499Z,2.67
2019-04-21T17:06:29.205Z,2.30
2019-04-21T17:08:59.180Z,2.40
2019-04-21T17:14:00.627Z,2.30
2019-04-21T17:16:31.947Z,2.70
2019-04-21T17:17:09.683Z,2.47
2019-04-21T17:19:13.711Z,2.60
2019-04-21T17:21:34.210Z,2.50
2019-04-21T17:24:04.575Z,2.47
2019-04-21T17:26:39.006Z,2.43
2019-04-21T17:29:06.848Z,2.50
2019-04-21T17:31:37.155Z,2.50
2019-04-21T17:34:12.317Z,2.50
2019-04-21T17:36:39.253Z,2.20
2019-04-21T17:39:10.997Z,2.37
2019-04-21T17:41:55.721Z,2.53
2019-04-21T17:44:12.361Z,2.80
2019-04-21T17:46:48.582Z,2.33
2019-04-21T17:49:14.879Z,2.40
2019-04-21T17:52:09.824Z,3.70
2019-04-21T17:54:46.571Z,2.60
2019-04-21T17:57:32.327Z,2.77
2019-04-21T18:00:04.121Z,2.47
2019-04-21T18:02:38.576Z,2.60
2019-04-21T18:05:09.236Z,2.70
2019-04-21T18:07:34.994Z,2.23
2019-04-21T18:10:10.019Z,2.10
2019-04-21T18:12:36.413Z,2.47
2019-04-21T18:15:16.191Z,2.47
2019-04-21T18:17:24.769Z,2.40
2019-04-21T18:19:55.627Z,2.03
2019-04-21T18:22:49.878Z,2.47
2019-04-21T18:25:31.981Z,2.27
2019-04-21T18:27:52.409Z,3.33
2019-04-21T18:30:48.715Z,2.73
2019-04-21T18:33:27.174Z,2.80
2019-04-21T18:36:08.554Z,2.67
2019-04-21T18:39:04.211Z,3.07
2019-04-21T18:41:21.807Z,3.20
2019-04-21T18:44:23.612Z,2.93
2019-04-21T18:46:52.556Z,2.97
2019-04-21T18:49:29.145Z,2.87
2019-04-21T18:52:16.823Z,2.80
2019-04-21T18:54:52.564Z,3.23
2019-04-21T18:57:19.535Z,3.40
2019-04-21T18:59:43.380Z,3.17
2019-04-21T19:02:14.910Z,2.80
2019-04-21T19:04:44.171Z,2.90
2019-04-21T19:07:27.575Z,3.83
2019-04-21T19:10:14.877Z,2.80
2019-04-21T19:15:02.466Z,2.20
2019-04-21T19:20:11.730Z,2.23
2019-04-21T19:22:38.661Z,2.23
2019-04-21T19:25:13.085Z,2.50
2019-04-21T19:27:42.188Z,2.53
2019-04-21T19:30:36.817Z,2.40
2019-04-21T19:32:48.204Z,2.43
2019-04-21T19:35:01.589Z,2.60
2019-04-21T19:37:42.258Z,2.33
2019-04-21T19:40:15.820Z,2.53
2019-04-21T19:42:42.598Z,2.37
2019-04-21T19:45:22.541Z,2.40
2019-04-21T19:47:52.758Z,2.40
2019-04-21T19:50:30.964Z,2.17
2019-04-21T19:52:51.907Z,2.40
2019-04-21T19:55:13.974Z,2.70
2019-04-21T19:57:45.036Z,2.47
2019-04-21T20:00:19.190Z,2.73
2019-04-21T20:02:50.413Z,2.63
2019-04-21T20:05:30.309Z,2.30
2019-04-21T20:08:06.387Z,2.43
2019-04-21T20:10:44.389Z,2.13
2019-04-21T20:13:26.134Z,2.30
2019-04-21T20:15:44.755Z,1.90
2019-04-21T20:18:11.349Z,2.20
2019-04-21T20:20:31.061Z,2.33
2019-04-21T20:23:01.305Z,2.50
2019-04-21T20:25:39.308Z,2.13
2019-04-21T20:28:14.771Z,2.10
2019-04-21T20:30:58.415Z,2.30
2019-04-21T20:35:58.281Z,2.20
2019-04-21T20:38:19.369Z,2.27
2019-04-21T20:40:51.019Z,2.20
2019-04-21T20:43:34.375Z,2.20
2019-04-21T20:46:02.401Z,2.23
2019-04-21T20:48:23.741Z,1.53
2019-04-21T20:51:06.437Z,1.90
2019-04-21T20:53:33.088Z,1.80
2019-04-21T20:55:59.190Z,1.80
2019-04-21T20:58:34.798Z,1.97
2019-04-21T21:03:39.102Z,1.93
2019-04-21T21:06:08.011Z,1.40
2019-04-21T21:08:44.578Z,1.77
2019-04-21T21:11:09.506Z,2.30
2019-04-21T21:13:47.761Z,2.00
2019-04-21T21:16:19.974Z,2.03
2019-04-21T21:21:20.968Z,2.70
2019-04-21T21:23:52.751Z,1.80
2019-04-21T21:26:25.536Z,2.10
2019-04-21T21:28:48.647Z,1.57
2019-04-21T21:31:30.765Z,2.00
2019-04-21T21:34:06.263Z,2.10
2019-04-21T21:36:31.854Z,1.90
2019-04-21T21:38:59.931Z,2.00
2019-04-21T21:41:22.149Z,1.87
2019-04-21T21:43:56.598Z,2.23
2019-04-21T21:46:39.021Z,1.77
2019-04-21T21:49:01.965Z,2.17
2019-04-21T21:51:38.236Z,2.27
2019-04-21T21:53:52.718Z,2.23
2019-04-21T21:56:22.818Z,2.20
2019-04-21T21:58:53.843Z,2.87
2019-04-21T22:01:31.834Z,2.43
2019-04-21T22:04:07.225Z,2.47
2019-04-21T22:06:38.709Z,2.50
2019-04-21T22:08:58.607Z,2.60
2019-04-21T22:11:29.787Z,2.27
2019-04-21T22:14:04.370Z,2.47
2019-04-21T22:16:45.422Z,2.20
2019-04-21T22:19:21.937Z,2.57
2019-04-21T22:21:53.552Z,2.10
2019-04-21T22:24:19.366Z,2.70
2019-04-21T22:26:37.056Z,2.63
2019-04-21T22:29:07.735Z,2.80
2019-04-21T22:31:40.746Z,2.73
2019-04-21T22:34:12.627Z,2.90
2019-04-21T22:36:48.773Z,2.50
2019-04-21T22:39:28.518Z,2.63
2019-04-21T22:41:46.801Z,2.83
2019-04-21T22:44:18.965Z,2.70
2019-04-21T22:46:59.932Z,2.20
2019-04-21T22:49:22.020Z,2.40
2019-04-21T22:51:52.444Z,2.47
2019-04-21T22:54:30.925Z,2.50
2019-04-21T22:57:04.178Z,2.20
2019-04-21T22:59:26.784Z,2.47
2019-04-21T23:01:57.719Z,2.93
2019-04-21T23:04:34.183Z,2.53
2019-04-21T23:07:04.125Z,1.93
2019-04-21T23:09:30.801Z,2.57
2019-04-21T23:12:01.928Z,1.50
2019-04-21T23:14:43.847Z,2.40
2019-04-21T23:17:26.614Z,2.23
2019-04-21T23:19:46.244Z,2.53
2019-04-21T23:22:21.364Z,2.07
2019-04-21T23:24:59.136Z,1.87
2019-04-21T23:27:23.805Z,2.53
2019-04-21T23:30:11.695Z,2.63
2019-04-21T23:32:25.928Z,2.40
2019-04-21T23:34:45.593Z,2.33
2019-04-21T23:37:20.242Z,2.77
2019-04-21T23:39:47.714Z,2.50
2019-04-21T23:42:26.070Z,2.70
2019-04-21T23:44:54.423Z,2.43
2019-04-21T23:47:34.537Z,1.73
2019-04-21T23:50:00.104Z,2.40
2019-04-21T23:52:23.855Z,2.40
2019-04-21T23:54:53.648Z,2.40
2019-04-21T23:57:31.493Z,2.43
2019-04-21T23:59:58.849Z,1.53
